Time;durP1;ratioP1;P1;durP2;ratioP2;P2;SDS_P1;SDS_P2;PMS_P1;PMS_P2;Temp;Humidity;BMP_temperature;BMP_pressure;BME280_temperature;BME280_humidity;BME280_pressure;Samples;Min_cycle;Max_cycle;Signal;HPM_P1;HPM_P2
2022/08/26 00:00:45;;;;;;;20.00;8.20;;;;;;;;;;5039263;28;20075;-84
2022/08/26 00:03:12;;;;;;;16.33;8.05;;;;;;;;;;5039674;28;20108;-84
2022/08/26 00:05:38;;;;;;;14.32;7.68;;;;;;;;;;5036868;28;20041;-84
2022/08/26 00:08:05;;;;;;;18.23;8.20;;;;;;;;;;5038515;28;20041;-85
2022/08/26 00:10:31;;;;;;;19.77;7.93;;;;;;;;;;5036905;28;20041;-85
2022/08/26 00:12:56;;;;;;;11.75;7.15;;;;;;;;;;5038171;28;20036;-85
2022/08/26 00:15:23;;;;;;;13.20;7.00;;;;;;;;;;5038249;28;20035;-84
2022/08/26 00:17:50;;;;;;;14.10;7.55;;;;;;;;;;5037902;28;20034;-85
2022/08/26 00:20:20;;;;;;;13.95;7.38;;;;;;;;;;5038453;28;20037;-85
2022/08/26 00:22:46;;;;;;;14.23;7.60;;;;;;;;;;5020329;28;20033;-85
2022/08/26 00:25:13;;;;;;;16.30;7.57;;;;;;;;;;5038457;28;20048;-85
2022/08/26 00:27:38;;;;;;;11.85;6.70;;;;;;;;;;5038146;28;20028;-84
2022/08/26 00:30:08;;;;;;;10.93;6.63;;;;;;;;;;5038546;28;20033;-84
2022/08/26 00:32:33;;;;;;;11.35;6.70;;;;;;;;;;5036857;28;20482;-85
2022/08/26 00:35:00;;;;;;;12.38;7.07;;;;;;;;;;5037566;28;20037;-84
2022/08/26 00:37:25;;;;;;;14.55;7.82;;;;;;;;;;5038065;28;20080;-84
2022/08/26 00:39:51;;;;;;;12.68;6.65;;;;;;;;;;5037538;28;20040;-84
2022/08/26 00:42:17;;;;;;;10.23;6.50;;;;;;;;;;5036739;28;20551;-85
2022/08/26 00:44:43;;;;;;;12.23;6.90;;;;;;;;;;5036995;28;20041;-84
2022/08/26 00:47:20;;;;;;;11.32;6.50;;;;;;;;;;5037319;28;20036;-85
2022/08/26 00:49:46;;;;;;;12.98;6.82;;;;;;;;;;5038918;28;20030;-84
2022/08/26 00:52:15;;;;;;;14.38;6.80;;;;;;;;;;5038196;28;20026;-84
2022/08/26 00:54:50;;;;;;;11.35;6.30;;;;;;;;;;5036867;28;20085;-84
2022/08/26 00:57:17;;;;;;;11.27;6.57;;;;;;;;;;5037044;28;20037;-84
2022/08/26 00:59:52;;;;;;;13.80;6.50;;;;;;;;;;5037273;28;20124;-84
2022/08/26 01:02:17;;;;;;;10.77;6.25;;;;;;;;;;5038646;28;20041;-84
2022/08/26 01:04:43;;;;;;;13.63;6.80;;;;;;;;;;5037875;28;20026;-85
2022/08/26 01:07:09;;;;;;;12.77;6.68;;;;;;;;;;5036458;28;20497;-84
2022/08/26 01:09:35;;;;;;;13.93;7.13;;;;;;;;;;5037573;28;20107;-84
2022/08/26 01:12:02;;;;;;;11.13;7.38;;;;;;;;;;5037957;28;20033;-84
2022/08/26 01:14:32;;;;;;;11.90;6.55;;;;;;;;;;5037962;28;20047;-85
2022/08/26 01:17:00;;;;;;;12.95;6.63;;;;;;;;;;5037803;28;20490;-84
2022/08/26 01:19:30;;;;;;;11.93;6.20;;;;;;;;;;5037486;28;20052;-84
2022/08/26 01:22:11;;;;;;;13.40;6.65;;;;;;;;;;5037591;28;20482;-84
2022/08/26 01:24:38;;;;;;;11.45;6.55;;;;;;;;;;5037729;28;20045;-84
2022/08/26 01:27:07;;;;;;;10.20;6.07;;;;;;;;;;5037467;28;20041;-84
2022/08/26 01:29:34;;;;;;;10.32;5.80;;;;;;;;;;5037562;28;20071;-84
2022/08/26 01:32:03;;;;;;;12.68;6.28;;;;;;;;;;5037390;28;20029;-84
2022/08/26 01:34:31;;;;;;;11.07;6.05;;;;;;;;;;5037199;28;20053;-84
2022/08/26 01:37:11;;;;;;;14.55;7.18;;;;;;;;;;5036173;28;20084;-85
2022/08/26 01:39:38;;;;;;;15.77;6.68;;;;;;;;;;5036617;28;20091;-84
2022/08/26 01:42:08;;;;;;;12.18;6.82;;;;;;;;;;5037753;28;20033;-85
2022/08/26 01:44:57;;;;;;;10.77;6.80;;;;;;;;;;5019558;28;20107;-84
2022/08/26 01:47:25;;;;;;;12.70;6.75;;;;;;;;;;5026585;28;20054;-84
2022/08/26 01:49:54;;;;;;;12.77;6.97;;;;;;;;;;5037779;28;20030;-84
2022/08/26 01:52:25;;;;;;;13.98;7.30;;;;;;;;;;5038344;28;20418;-84
2022/08/26 01:54:54;;;;;;;10.52;6.57;;;;;;;;;;5040967;28;20120;-84
2022/08/26 01:57:22;;;;;;;13.35;6.95;;;;;;;;;;5041098;28;20041;-84
2022/08/26 01:59:49;;;;;;;10.73;6.80;;;;;;;;;;5039836;28;20115;-84
2022/08/26 02:02:16;;;;;;;12.73;6.80;;;;;;;;;;5041183;28;20045;-84
2022/08/26 02:04:51;;;;;;;13.23;7.13;;;;;;;;;;5023150;28;20029;-84
2022/08/26 02:07:19;;;;;;;13.30;6.70;;;;;;;;;;5040770;28;20109;-84
2022/08/26 02:09:45;;;;;;;11.70;7.07;;;;;;;;;;5040549;28;20029;-84
2022/08/26 02:12:14;;;;;;;13.32;7.18;;;;;;;;;;5039680;28;20028;-84
2022/08/26 02:14:48;;;;;;;12.57;7.70;;;;;;;;;;5040336;28;20033;-84
2022/08/26 02:17:15;;;;;;;11.10;7.32;;;;;;;;;;5039315;28;20036;-84
2022/08/26 02:19:45;;;;;;;16.27;7.35;;;;;;;;;;5039129;28;20037;-84
2022/08/26 02:22:15;;;;;;;9.93;6.47;;;;;;;;;;5040640;28;20040;-84
2022/08/26 02:24:49;;;;;;;11.90;6.80;;;;;;;;;;5041039;28;20498;-83
2022/08/26 02:27:16;;;;;;;10.07;6.57;;;;;;;;;;5040678;28;20037;-83
2022/08/26 02:29:50;;;;;;;11.45;6.78;;;;;;;;;;5040131;28;20033;-84
2022/08/26 02:32:15;;;;;;;11.98;6.57;;;;;;;;;;5039545;28;20096;-85
2022/08/26 02:34:41;;;;;;;9.85;6.70;;;;;;;;;;5040193;28;20029;-85
2022/08/26 02:37:09;;;;;;;14.85;6.88;;;;;;;;;;5040134;28;20103;-85
2022/08/26 02:39:37;;;;;;;11.65;7.10;;;;;;;;;;5040271;28;20044;-85
2022/08/26 02:42:04;;;;;;;14.20;7.40;;;;;;;;;;5023019;28;20047;-85
2022/08/26 02:44:29;;;;;;;15.02;7.63;;;;;;;;;;5040531;28;20374;-85
2022/08/26 02:46:55;;;;;;;10.73;6.45;;;;;;;;;;5039841;28;20033;-84
2022/08/26 02:49:22;;;;;;;9.13;6.20;;;;;;;;;;5038958;28;20064;-84
2022/08/26 02:51:49;;;;;;;14.85;6.60;;;;;;;;;;5038686;28;20037;-85
2022/08/26 02:54:15;;;;;;;10.75;6.93;;;;;;;;;;5022414;28;20068;-84
2022/08/26 02:56:42;;;;;;;14.95;6.28;;;;;;;;;;5038744;28;20083;-85
2022/08/26 02:59:07;;;;;;;10.30;6.75;;;;;;;;;;5039108;28;20033;-83
2022/08/26 03:01:34;;;;;;;12.73;6.07;;;;;;;;;;5038776;28;20039;-84
2022/08/26 03:04:03;;;;;;;10.63;5.68;;;;;;;;;;5038819;28;20052;-84
2022/08/26 03:06:29;;;;;;;11.63;5.90;;;;;;;;;;5039886;28;20037;-84
2022/08/26 03:08:54;;;;;;;11.50;5.90;;;;;;;;;;5039746;28;20026;-84
2022/08/26 03:11:21;;;;;;;11.55;6.20;;;;;;;;;;5037965;28;20029;-84
2022/08/26 03:13:46;;;;;;;11.52;6.20;;;;;;;;;;5040109;28;20488;-84
2022/08/26 03:16:12;;;;;;;17.67;6.00;;;;;;;;;;5039603;28;20049;-84
2022/08/26 03:18:37;;;;;;;9.85;5.93;;;;;;;;;;5038392;28;20033;-85
2022/08/26 03:21:09;;;;;;;11.27;6.03;;;;;;;;;;5035680;28;20032;-85
2022/08/26 03:23:36;;;;;;;11.13;5.70;;;;;;;;;;5036148;28;20048;-85
2022/08/26 03:26:03;;;;;;;9.50;5.50;;;;;;;;;;5035383;28;20014;-85
2022/08/26 03:28:28;;;;;;;11.52;5.30;;;;;;;;;;5035746;28;20037;-85
2022/08/26 03:30:54;;;;;;;10.52;5.60;;;;;;;;;;5036324;28;20041;-85
2022/08/26 03:33:20;;;;;;;10.30;5.90;;;;;;;;;;5036065;28;20490;-85
2022/08/26 03:35:46;;;;;;;12.35;6.32;;;;;;;;;;5034419;28;20052;-85
2022/08/26 03:38:12;;;;;;;11.10;5.60;;;;;;;;;;5035827;28;20034;-86
2022/08/26 03:40:39;;;;;;;8.05;5.35;;;;;;;;;;5035579;28;20029;-84
2022/08/26 03:43:05;;;;;;;9.93;5.60;;;;;;;;;;5035529;28;20049;-85
2022/08/26 03:45:31;;;;;;;7.85;5.45;;;;;;;;;;5017491;28;20040;-85
2022/08/26 03:47:57;;;;;;;7.85;5.30;;;;;;;;;;5034385;28;20033;-85
2022/08/26 03:50:24;;;;;;;9.82;5.20;;;;;;;;;;5034078;28;20398;-85
2022/08/26 03:52:52;;;;;;;10.73;5.30;;;;;;;;;;5035478;28;20033;-85
2022/08/26 03:55:19;;;;;;;11.75;5.60;;;;;;;;;;5035459;28;20509;-85
2022/08/26 03:57:45;;;;;;;9.43;5.53;;;;;;;;;;5034161;28;20453;-85
2022/08/26 04:00:15;;;;;;;8.90;5.50;;;;;;;;;;5035679;28;20037;-85
2022/08/26 04:02:45;;;;;;;7.30;5.53;;;;;;;;;;5033786;28;20033;-85
2022/08/26 04:05:12;;;;;;;10.30;5.65;;;;;;;;;;5033588;28;20033;-86
2022/08/26 04:07:39;;;;;;;10.55;6.07;;;;;;;;;;5035518;28;20112;-84
2022/08/26 04:10:06;;;;;;;10.80;5.90;;;;;;;;;;5034836;28;20037;-85
2022/08/26 04:12:32;;;;;;;12.07;6.50;;;;;;;;;;5033932;28;20033;-85
2022/08/26 04:14:58;;;;;;;8.10;5.93;;;;;;;;;;5034773;28;20116;-85
2022/08/26 04:17:25;;;;;;;10.60;7.00;;;;;;;;;;5035073;28;20048;-85
2022/08/26 04:19:54;;;;;;;14.18;7.65;;;;;;;;;;5034947;28;20414;-85
2022/08/26 04:22:19;;;;;;;10.95;7.40;;;;;;;;;;5017303;28;20505;-85
2022/08/26 04:24:45;;;;;;;13.48;8.00;;;;;;;;;;5034570;28;20041;-85
2022/08/26 04:27:10;;;;;;;15.73;7.82;;;;;;;;;;5035132;28;20022;-85
2022/08/26 04:29:38;;;;;;;14.38;7.88;;;;;;;;;;5033327;28;20478;-85
2022/08/26 04:32:04;;;;;;;13.07;7.78;;;;;;;;;;5034793;28;20033;-85
2022/08/26 04:34:29;;;;;;;13.02;7.45;;;;;;;;;;5033216;28;20033;-85
2022/08/26 04:36:56;;;;;;;12.50;6.82;;;;;;;;;;5034642;28;20033;-85
2022/08/26 04:39:22;;;;;;;10.23;7.15;;;;;;;;;;5034795;28;20051;-85
2022/08/26 04:41:49;;;;;;;12.30;7.88;;;;;;;;;;5033972;28;20395;-85
2022/08/26 04:44:15;;;;;;;10.93;7.75;;;;;;;;;;5034574;28;20068;-85
2022/08/26 04:46:41;;;;;;;16.35;7.68;;;;;;;;;;5034793;28;20426;-85
2022/08/26 04:49:07;;;;;;;13.75;7.80;;;;;;;;;;5034417;28;20512;-86
2022/08/26 04:51:35;;;;;;;12.90;7.05;;;;;;;;;;5033311;28;20470;-86
2022/08/26 04:54:01;;;;;;;14.48;8.02;;;;;;;;;;5033022;28;20030;-85
2022/08/26 04:56:31;;;;;;;11.45;7.90;;;;;;;;;;5034176;28;20132;-85
2022/08/26 04:58:57;;;;;;;10.23;7.63;;;;;;;;;;5034198;28;20033;-86
2022/08/26 05:01:23;;;;;;;14.60;7.88;;;;;;;;;;5034214;28;20182;-86
2022/08/26 05:03:49;;;;;;;12.35;7.25;;;;;;;;;;5034994;28;20041;-85
2022/08/26 05:06:15;;;;;;;10.55;7.32;;;;;;;;;;5032590;28;20032;-85
2022/08/26 05:08:40;;;;;;;13.35;7.45;;;;;;;;;;5034226;28;20075;-85
2022/08/26 05:11:07;;;;;;;11.73;7.00;;;;;;;;;;5032722;28;20116;-85
2022/08/26 05:13:34;;;;;;;11.05;6.70;;;;;;;;;;5034016;28;20439;-85
2022/08/26 05:16:08;;;;;;;16.50;7.15;;;;;;;;;;5032540;28;20060;-85
2022/08/26 05:18:34;;;;;;;9.48;6.35;;;;;;;;;;5033749;28;20033;-85
2022/08/26 05:21:01;;;;;;;12.40;6.65;;;;;;;;;;5034067;28;20034;-85
2022/08/26 05:23:27;;;;;;;11.30;5.78;;;;;;;;;;5034539;28;20026;-85
2022/08/26 05:25:54;;;;;;;9.00;5.45;;;;;;;;;;5032328;28;20034;-85
2022/08/26 05:28:20;;;;;;;8.13;4.75;;;;;;;;;;5037841;28;20037;-85
2022/08/26 05:30:47;;;;;;;6.20;4.72;;;;;;;;;;5038396;28;20032;-85
2022/08/26 05:33:14;;;;;;;9.65;4.90;;;;;;;;;;5038142;28;20033;-85
2022/08/26 05:35:40;;;;;;;6.97;5.00;;;;;;;;;;5037504;28;20037;-85
2022/08/26 05:38:09;;;;;;;8.90;4.50;;;;;;;;;;5037719;28;20057;-85
2022/08/26 05:40:39;;;;;;;7.85;4.60;;;;;;;;;;5037922;28;20036;-86
2022/08/26 05:43:09;;;;;;;8.40;4.85;;;;;;;;;;5036695;28;20057;-85
2022/08/26 05:45:56;;;;;;;6.82;4.75;;;;;;;;;;5037314;28;20108;-85
2022/08/26 05:48:22;;;;;;;7.68;4.50;;;;;;;;;;5037946;28;20083;-85
2022/08/26 05:50:50;;;;;;;6.63;4.75;;;;;;;;;;5037954;28;20040;-85
2022/08/26 05:53:19;;;;;;;13.10;4.80;;;;;;;;;;5037544;28;20079;-85
2022/08/26 05:55:50;;;;;;;7.20;4.75;;;;;;;;;;5036206;28;20037;-85
2022/08/26 05:58:19;;;;;;;8.15;4.53;;;;;;;;;;5036131;28;20057;-85
2022/08/26 06:00:44;;;;;;;8.45;5.28;;;;;;;;;;5037895;28;20037;-85
2022/08/26 06:03:10;;;;;;;12.77;5.85;;;;;;;;;;5037134;28;20060;-85
2022/08/26 06:05:39;;;;;;;10.35;6.20;;;;;;;;;;5036668;28;20052;-84
2022/08/26 06:08:17;;;;;;;11.77;6.85;;;;;;;;;;5036746;28;20049;-84
2022/08/26 06:10:55;;;;;;;10.98;5.28;;;;;;;;;;5035587;28;20135;-84
2022/08/26 06:13:25;;;;;;;10.13;4.88;;;;;;;;;;5036759;28;20029;-84
2022/08/26 06:15:52;;;;;;;9.75;4.95;;;;;;;;;;5036877;28;20152;-84
2022/08/26 06:18:21;;;;;;;8.88;4.70;;;;;;;;;;5019251;28;20083;-84
2022/08/26 06:20:48;;;;;;;10.80;5.18;;;;;;;;;;5036732;28;20037;-84
2022/08/26 06:26:03;;;;;;;11.57;4.88;;;;;;;;;;5037153;28;20386;-86
2022/08/26 06:28:29;;;;;;;8.80;4.60;;;;;;;;;;5036397;28;20048;-86
2022/08/26 06:30:54;;;;;;;8.00;4.60;;;;;;;;;;5037193;28;20033;-84
2022/08/26 06:33:21;;;;;;;10.20;5.32;;;;;;;;;;5037092;28;20064;-84
2022/08/26 06:35:49;;;;;;;10.88;4.72;;;;;;;;;;5035906;28;20460;-83
2022/08/26 06:38:14;;;;;;;8.73;4.57;;;;;;;;;;5033258;28;20443;-84
2022/08/26 06:40:44;;;;;;;9.90;4.53;;;;;;;;;;5035324;28;20092;-83
2022/08/26 06:43:11;;;;;;;6.65;4.40;;;;;;;;;;5036937;28;20043;-84
2022/08/26 06:45:38;;;;;;;7.28;4.50;;;;;;;;;;5034841;28;20033;-83
2022/08/26 06:48:05;;;;;;;6.78;4.38;;;;;;;;;;5036438;28;20453;-84
2022/08/26 06:50:32;;;;;;;9.77;4.72;;;;;;;;;;5035130;28;20045;-84
2022/08/26 06:52:57;;;;;;;8.98;5.68;;;;;;;;;;5036146;28;20037;-84
2022/08/26 06:55:23;;;;;;;10.73;5.60;;;;;;;;;;5036144;28;20509;-84
2022/08/26 06:57:49;;;;;;;12.15;6.15;;;;;;;;;;5036495;28;20501;-84
2022/08/26 07:00:15;;;;;;;12.25;5.65;;;;;;;;;;5036712;28;20049;-84
2022/08/26 07:02:41;;;;;;;12.77;5.93;;;;;;;;;;5035786;28;20041;-85
2022/08/26 07:05:07;;;;;;;10.25;5.53;;;;;;;;;;5036515;28;20034;-85
2022/08/26 07:07:34;;;;;;;12.20;6.05;;;;;;;;;;5036681;28;20030;-86
2022/08/26 07:09:59;;;;;;;10.75;6.45;;;;;;;;;;5036649;28;20045;-85
2022/08/26 07:12:25;;;;;;;13.80;6.85;;;;;;;;;;5035300;28;20088;-86
2022/08/26 07:14:51;;;;;;;13.43;6.82;;;;;;;;;;5035913;28;20056;-86
2022/08/26 07:17:18;;;;;;;11.20;6.30;;;;;;;;;;5036237;28;20036;-86
2022/08/26 07:19:44;;;;;;;11.65;6.18;;;;;;;;;;5036852;28;20075;-85
2022/08/26 07:22:10;;;;;;;12.70;6.63;;;;;;;;;;5035750;28;20037;-86
2022/08/26 07:24:39;;;;;;;14.68;6.75;;;;;;;;;;5036305;28;20037;-86
2022/08/26 07:27:09;;;;;;;14.40;6.15;;;;;;;;;;5035115;28;20033;-87
2022/08/26 07:29:35;;;;;;;14.60;6.68;;;;;;;;;;5037925;28;20029;-86
2022/08/26 07:32:02;;;;;;;17.13;6.50;;;;;;;;;;5035933;28;20049;-84
2022/08/26 07:34:30;;;;;;;9.20;5.72;;;;;;;;;;5035431;28;20520;-84
2022/08/26 07:36:56;;;;;;;12.60;6.95;;;;;;;;;;5036550;28;20482;-84
2022/08/26 07:39:23;;;;;;;10.15;6.50;;;;;;;;;;5036533;28;20033;-84
2022/08/26 07:41:49;;;;;;;12.52;7.22;;;;;;;;;;5035749;28;20025;-85
2022/08/26 07:44:15;;;;;;;13.90;7.00;;;;;;;;;;5037196;28;20371;-85
2022/08/26 07:46:41;;;;;;;11.25;6.53;;;;;;;;;;5036273;28;20032;-85
2022/08/26 07:49:07;;;;;;;12.43;6.32;;;;;;;;;;5034680;28;20037;-85
2022/08/26 07:51:33;;;;;;;12.52;6.70;;;;;;;;;;5035930;28;20033;-85
2022/08/26 07:53:58;;;;;;;9.90;6.50;;;;;;;;;;5034727;28;20041;-84
2022/08/26 07:56:24;;;;;;;11.82;6.50;;;;;;;;;;5035980;28;20034;-84
2022/08/26 07:58:51;;;;;;;10.05;6.07;;;;;;;;;;5034364;28;20033;-84
2022/08/26 08:01:17;;;;;;;10.00;5.80;;;;;;;;;;5036584;28;20037;-85
2022/08/26 08:03:43;;;;;;;8.70;5.45;;;;;;;;;;5034842;28;20040;-85
2022/08/26 08:06:08;;;;;;;11.82;5.88;;;;;;;;;;5035632;28;20029;-84
2022/08/26 08:08:34;;;;;;;9.27;5.28;;;;;;;;;;5035331;28;20422;-85
2022/08/26 08:11:01;;;;;;;10.15;5.30;;;;;;;;;;5034508;28;20120;-85
2022/08/26 08:13:27;;;;;;;11.98;5.75;;;;;;;;;;5035341;28;20033;-85
2022/08/26 08:15:52;;;;;;;8.40;5.38;;;;;;;;;;5034476;28;20078;-85
2022/08/26 08:18:18;;;;;;;6.93;5.03;;;;;;;;;;5035650;28;20490;-85
2022/08/26 08:20:44;;;;;;;9.10;5.35;;;;;;;;;;5034940;28;20079;-85
2022/08/26 08:23:10;;;;;;;8.50;4.88;;;;;;;;;;5035970;28;20035;-88
2022/08/26 08:25:36;;;;;;;6.82;4.72;;;;;;;;;;5035265;28;20108;-84
2022/08/26 08:28:02;;;;;;;11.65;4.60;;;;;;;;;;5033327;28;20045;-84
2022/08/26 08:30:29;;;;;;;6.60;4.40;;;;;;;;;;5034467;28;20033;-84
2022/08/26 08:32:55;;;;;;;6.68;4.68;;;;;;;;;;5032971;28;20037;-84
2022/08/26 08:35:22;;;;;;;6.68;4.15;;;;;;;;;;5034046;28;20033;-82
2022/08/26 08:37:53;;;;;;;10.18;4.82;;;;;;;;;;5033640;28;20037;-84
2022/08/26 08:40:19;;;;;;;6.10;4.03;;;;;;;;;;5016847;28;20037;-84
2022/08/26 08:43:02;;;;;;;8.30;4.35;;;;;;;;;;5034166;28;20041;-84
2022/08/26 08:45:31;;;;;;;5.93;4.13;;;;;;;;;;5034104;28;20056;-84
2022/08/26 08:47:59;;;;;;;9.10;4.30;;;;;;;;;;5032845;28;20052;-85
2022/08/26 08:50:29;;;;;;;11.43;4.50;;;;;;;;;;5034156;28;20041;-85
2022/08/26 08:53:08;;;;;;;8.18;4.07;;;;;;;;;;5017672;28;20068;-87
2022/08/26 08:56:00;;;;;;;9.88;4.63;;;;;;;;;;5034479;28;20037;-85
2022/08/26 08:58:56;;;;;;;7.90;4.57;;;;;;;;;;5034226;28;20029;-85
2022/08/26 09:01:27;;;;;;;7.45;4.90;;;;;;;;;;5033239;28;20078;-85
2022/08/26 09:04:14;;;;;;;10.73;4.90;;;;;;;;;;5031402;28;20048;-85
2022/08/26 09:06:41;;;;;;;7.40;4.57;;;;;;;;;;5033330;28;20030;-86
2022/08/26 09:09:12;;;;;;;5.70;4.30;;;;;;;;;;5034550;28;20034;-85
2022/08/26 09:11:38;;;;;;;4.88;4.00;;;;;;;;;;5032725;28;20037;-84
2022/08/26 09:14:03;;;;;;;8.25;4.72;;;;;;;;;;5033255;28;20037;-86
2022/08/26 09:16:50;;;;;;;7.05;4.50;;;;;;;;;;5032592;28;20033;-86
2022/08/26 09:19:40;;;;;;;6.38;4.53;;;;;;;;;;5035930;28;20077;-85
2022/08/26 09:22:05;;;;;;;6.40;4.60;;;;;;;;;;5034659;28;20029;-86
2022/08/26 09:24:34;;;;;;;7.55;4.57;;;;;;;;;;5034039;28;20578;-86
2022/08/26 09:27:00;;;;;;;8.02;4.45;;;;;;;;;;5032876;28;20040;-86
2022/08/26 09:29:39;;;;;;;7.00;4.53;;;;;;;;;;5032891;28;20033;-86
2022/08/26 09:32:20;;;;;;;8.27;4.82;;;;;;;;;;5033205;28;20044;-85
2022/08/26 09:34:59;;;;;;;6.60;4.43;;;;;;;;;;5033900;28;20038;-86
2022/08/26 09:37:47;;;;;;;8.43;4.35;;;;;;;;;;5033911;28;20029;-86
2022/08/26 09:40:25;;;;;;;7.05;4.70;;;;;;;;;;5033009;28;20120;-85
2022/08/26 09:43:10;;;;;;;6.45;4.40;;;;;;;;;;5034320;28;20095;-86
2022/08/26 09:45:38;;;;;;;6.03;3.95;;;;;;;;;;5033071;28;20037;-86
2022/08/26 09:48:05;;;;;;;7.85;4.30;;;;;;;;;;5034672;28;20083;-86
2022/08/26 09:50:33;;;;;;;6.55;4.35;;;;;;;;;;5033565;28;20045;-86
2022/08/26 09:53:10;;;;;;;5.57;3.85;;;;;;;;;;5034479;28;20048;-86
2022/08/26 09:55:38;;;;;;;6.30;4.03;;;;;;;;;;5018299;28;20128;-85
2022/08/26 09:58:04;;;;;;;8.82;4.32;;;;;;;;;;5032766;28;20034;-86
2022/08/26 10:00:32;;;;;;;8.50;4.13;;;;;;;;;;5034069;28;20029;-85
2022/08/26 10:03:03;;;;;;;6.53;4.03;;;;;;;;;;5034375;28;20115;-86
2022/08/26 10:05:43;;;;;;;7.07;3.92;;;;;;;;;;5034017;28;20425;-86
2022/08/26 10:08:20;;;;;;;5.88;4.38;;;;;;;;;;5034482;28;20482;-85
2022/08/26 10:10:46;;;;;;;8.13;4.43;;;;;;;;;;5034348;28;20037;-86
2022/08/26 10:13:22;;;;;;;8.32;4.30;;;;;;;;;;5035903;28;20033;-87
2022/08/26 10:15:59;;;;;;;9.10;4.20;;;;;;;;;;5037786;28;20038;-87
2022/08/26 10:18:32;;;;;;;5.65;4.20;;;;;;;;;;5037976;28;20041;-86
2022/08/26 10:21:08;;;;;;;5.82;3.63;;;;;;;;;;5036615;28;20045;-86
2022/08/26 10:23:41;;;;;;;6.05;4.10;;;;;;;;;;5038309;28;20049;-86
2022/08/26 10:26:19;;;;;;;7.20;4.07;;;;;;;;;;5037423;28;20034;-86
2022/08/26 10:28:56;;;;;;;7.18;4.00;;;;;;;;;;5038043;28;20033;-86
2022/08/26 10:31:45;;;;;;;4.95;4.28;;;;;;;;;;5038007;28;20497;-87
2022/08/26 10:34:11;;;;;;;6.47;4.28;;;;;;;;;;5037684;28;20041;-85
2022/08/26 10:36:55;;;;;;;11.25;8.15;;;;;;;;;;5037527;28;20057;-86
2022/08/26 10:39:33;;;;;;;8.27;4.10;;;;;;;;;;5037606;28;20049;-86
2022/08/26 10:42:06;;;;;;;6.38;3.95;;;;;;;;;;5037417;28;20108;-86
2022/08/26 10:44:34;;;;;;;7.80;4.00;;;;;;;;;;5037512;28;20048;-85
2022/08/26 10:47:11;;;;;;;7.00;4.05;;;;;;;;;;5037430;28;20033;-87
2022/08/26 10:49:38;;;;;;;6.18;4.00;;;;;;;;;;5036459;28;20033;-87
2022/08/26 10:52:31;;;;;;;7.40;4.05;;;;;;;;;;5037417;28;20412;-86
2022/08/26 10:55:32;;;;;;;5.35;3.83;;;;;;;;;;5036788;28;20033;-86
2022/08/26 10:58:12;;;;;;;7.97;4.30;;;;;;;;;;5034654;28;20045;-86
2022/08/26 11:03:52;;;;;;;6.45;3.80;;;;;;;;;;5036893;28;20041;-85
2022/08/26 11:06:18;;;;;;;11.68;4.20;;;;;;;;;;5035813;28;20038;-86
2022/08/26 11:08:47;;;;;;;4.70;3.80;;;;;;;;;;5035919;28;20041;-86
2022/08/26 11:11:38;;;;;;;7.95;4.00;;;;;;;;;;5036446;28;20040;-87
2022/08/26 11:14:19;;;;;;;5.55;3.80;;;;;;;;;;5035939;28;20121;-87
2022/08/26 11:16:46;;;;;;;6.35;3.58;;;;;;;;;;5036137;28;20040;-86
2022/08/26 11:19:34;;;;;;;5.50;3.70;;;;;;;;;;5037712;28;20113;-86
2022/08/26 11:22:30;;;;;;;4.78;3.40;;;;;;;;;;5037314;28;20045;-87
2022/08/26 11:24:56;;;;;;;4.50;3.40;;;;;;;;;;5036566;28;20477;-87
2022/08/26 11:27:27;;;;;;;4.93;3.33;;;;;;;;;;5038703;28;20043;-87
2022/08/26 11:30:11;;;;;;;5.10;3.33;;;;;;;;;;5037556;28;20144;-86
2022/08/26 11:32:37;;;;;;;4.93;3.22;;;;;;;;;;5035954;28;20489;-86
2022/08/26 11:35:12;;;;;;;6.68;3.45;;;;;;;;;;5036353;28;20044;-86
2022/08/26 11:37:47;;;;;;;3.92;3.20;;;;;;;;;;5035672;28;20433;-86
2022/08/26 11:40:27;;;;;;;5.40;3.40;;;;;;;;;;5036879;28;20083;-86
2022/08/26 11:43:04;;;;;;;3.65;3.15;;;;;;;;;;5036745;28;20044;-87
2022/08/26 11:45:37;;;;;;;4.50;3.40;;;;;;;;;;5035913;28;20090;-86
2022/08/26 11:48:25;;;;;;;4.55;3.65;;;;;;;;;;5036146;28;20052;-86
2022/08/26 11:50:52;;;;;;;7.28;3.40;;;;;;;;;;5037067;28;20132;-86
2022/08/26 11:53:18;;;;;;;5.10;3.22;;;;;;;;;;5036689;28;20382;-86
2022/08/26 11:55:43;;;;;;;5.75;3.13;;;;;;;;;;5035592;28;20560;-86
2022/08/26 11:58:11;;;;;;;6.07;3.30;;;;;;;;;;5036708;28;20409;-86
2022/08/26 12:00:43;;;;;;;5.43;3.15;;;;;;;;;;5037060;28;20080;-86
2022/08/26 12:03:16;;;;;;;7.45;3.35;;;;;;;;;;5037420;28;20124;-86
2022/08/26 12:05:46;;;;;;;5.13;3.38;;;;;;;;;;5037479;28;20064;-87
2022/08/26 12:08:16;;;;;;;5.68;3.35;;;;;;;;;;5037714;28;20171;-87
2022/08/26 12:10:42;;;;;;;4.80;3.00;;;;;;;;;;5036948;28;20501;-87
2022/08/26 12:13:19;;;;;;;4.28;3.22;;;;;;;;;;5036875;28;20033;-86
2022/08/26 12:15:53;;;;;;;6.03;3.40;;;;;;;;;;5037123;28;20227;-86
2022/08/26 12:18:25;;;;;;;4.07;3.00;;;;;;;;;;5038155;28;20068;-88
2022/08/26 12:20:55;;;;;;;4.70;3.38;;;;;;;;;;5038446;28;20041;-89
2022/08/26 12:23:26;;;;;;;5.72;3.20;;;;;;;;;;5037535;28;20410;-87
2022/08/26 12:26:21;;;;;;;6.32;3.65;;;;;;;;;;5036343;28;20025;-83
2022/08/26 12:29:21;;;;;;;5.30;3.28;;;;;;;;;;5034398;28;20049;-86
2022/08/26 12:31:47;;;;;;;5.53;3.70;;;;;;;;;;5035251;28;20418;-86
2022/08/26 12:34:15;;;;;;;5.15;3.55;;;;;;;;;;5034618;28;20033;-86
2022/08/26 12:36:55;;;;;;;4.75;3.17;;;;;;;;;;5032730;28;20513;-86
2022/08/26 12:39:27;;;;;;;6.22;3.20;;;;;;;;;;5035116;28;20059;-87
2022/08/26 12:41:55;;;;;;;6.25;3.40;;;;;;;;;;5035435;28;20040;-86
2022/08/26 12:44:43;;;;;;;5.22;3.50;;;;;;;;;;5035606;28;20059;-87
2022/08/26 12:47:32;;;;;;;8.63;3.35;;;;;;;;;;5035525;28;20045;-86
2022/08/26 12:50:17;;;;;;;4.78;3.38;;;;;;;;;;5035811;28;20041;-87
2022/08/26 12:53:08;;;;;;;4.90;3.33;;;;;;;;;;5036974;28;20033;-86
2022/08/26 12:55:42;;;;;;;9.10;3.22;;;;;;;;;;5037289;28;20048;-87
2022/08/26 12:58:12;;;;;;;7.88;3.80;;;;;;;;;;5037682;28;20523;-86
2022/08/26 13:00:41;;;;;;;5.72;3.65;;;;;;;;;;5036304;28;20132;-87
2022/08/26 13:03:42;;;;;;;5.30;3.50;;;;;;;;;;5036964;28;20076;-87
2022/08/26 13:06:20;;;;;;;7.82;3.78;;;;;;;;;;5036289;28;20039;-87
2022/08/26 13:09:09;;;;;;;5.93;3.70;;;;;;;;;;5038244;28;20453;-87
2022/08/26 13:11:37;;;;;;;5.18;3.38;;;;;;;;;;5030064;28;20140;-87
2022/08/26 13:14:08;;;;;;;5.07;3.65;;;;;;;;;;5038205;28;20041;-87
2022/08/26 13:16:35;;;;;;;5.53;3.17;;;;;;;;;;5038184;28;20379;-87
2022/08/26 13:19:04;;;;;;;4.30;3.33;;;;;;;;;;5037617;28;20040;-87
2022/08/26 13:21:35;;;;;;;4.85;3.60;;;;;;;;;;5038392;28;20075;-87
2022/08/26 13:24:07;;;;;;;6.57;3.90;;;;;;;;;;5037015;28;20069;-87
2022/08/26 13:26:33;;;;;;;7.22;3.70;;;;;;;;;;5037940;28;20026;-87
2022/08/26 13:28:59;;;;;;;6.63;3.53;;;;;;;;;;5037704;28;20403;-86
2022/08/26 13:31:28;;;;;;;8.45;3.70;;;;;;;;;;5038551;28;20727;-88
2022/08/26 13:33:54;;;;;;;10.35;3.90;;;;;;;;;;5034553;28;20367;-86
2022/08/26 13:36:19;;;;;;;11.75;3.95;;;;;;;;;;5034963;28;20064;-87
2022/08/26 13:38:45;;;;;;;4.43;3.40;;;;;;;;;;5035524;28;20037;-85
2022/08/26 13:41:10;;;;;;;6.47;3.50;;;;;;;;;;5035430;28;20025;-86
2022/08/26 13:43:36;;;;;;;5.85;3.35;;;;;;;;;;5033896;28;20524;-86
2022/08/26 13:46:01;;;;;;;4.88;3.10;;;;;;;;;;5034943;28;20056;-86
2022/08/26 13:48:27;;;;;;;5.25;3.40;;;;;;;;;;5037876;28;20417;-83
2022/08/26 13:50:52;;;;;;;5.38;3.50;;;;;;;;;;5037413;28;20030;-86
2022/08/26 13:53:18;;;;;;;4.05;3.50;;;;;;;;;;5037363;28;20109;-87
2022/08/26 13:55:43;;;;;;;7.82;3.50;;;;;;;;;;5038822;28;20092;-86
2022/08/26 13:58:10;;;;;;;5.50;3.42;;;;;;;;;;5038401;28;20457;-85
2022/08/26 14:00:36;;;;;;;5.53;3.60;;;;;;;;;;5037729;28;20048;-86
2022/08/26 14:03:03;;;;;;;8.57;3.70;;;;;;;;;;5038682;28;20037;-86
2022/08/26 14:05:29;;;;;;;9.18;3.60;;;;;;;;;;5038039;28;20025;-86
2022/08/26 14:07:56;;;;;;;5.47;3.10;;;;;;;;;;5038619;28;20410;-86
2022/08/26 14:10:22;;;;;;;5.57;3.83;;;;;;;;;;5037773;28;20482;-85
2022/08/26 14:12:48;;;;;;;5.30;3.42;;;;;;;;;;5038814;28;20528;-85
2022/08/26 14:15:16;;;;;;;8.05;3.67;;;;;;;;;;5038769;28;20029;-85
2022/08/26 14:17:42;;;;;;;7.15;3.40;;;;;;;;;;5039841;28;20027;-86
2022/08/26 14:20:11;;;;;;;7.00;3.65;;;;;;;;;;5039865;28;20124;-86
2022/08/26 14:22:41;;;;;;;5.40;3.53;;;;;;;;;;5038569;28;20048;-86
2022/08/26 14:25:07;;;;;;;5.55;3.25;;;;;;;;;;5038693;28;20091;-85
2022/08/26 14:27:32;;;;;;;5.03;3.45;;;;;;;;;;5039420;28;20022;-86
2022/08/26 14:29:58;;;;;;;5.50;3.30;;;;;;;;;;5040101;28;20044;-86
2022/08/26 14:32:26;;;;;;;5.03;3.53;;;;;;;;;;5039668;28;20132;-86
2022/08/26 14:34:52;;;;;;;6.35;3.65;;;;;;;;;;5039315;28;20171;-86
2022/08/26 14:37:19;;;;;;;4.75;3.22;;;;;;;;;;5043193;28;20049;-86
2022/08/26 14:39:45;;;;;;;10.30;3.80;;;;;;;;;;5040288;28;20113;-86
2022/08/26 14:42:13;;;;;;;8.90;3.72;;;;;;;;;;5040086;28;20077;-86
2022/08/26 14:44:42;;;;;;;7.82;3.42;;;;;;;;;;5039250;28;20057;-86
2022/08/26 14:47:08;;;;;;;7.00;3.50;;;;;;;;;;5039836;28;20034;-86
2022/08/26 14:49:34;;;;;;;6.63;3.88;;;;;;;;;;5036713;28;20046;-84
2022/08/26 14:52:00;;;;;;;8.02;4.05;;;;;;;;;;5038440;28;20120;-86
2022/08/26 14:54:27;;;;;;;10.80;3.97;;;;;;;;;;5037792;28;20021;-86
2022/08/26 14:56:58;;;;;;;5.97;3.80;;;;;;;;;;5038540;28;20083;-86